Time;durP1;ratioP1;P1;durP2;ratioP2;P2;SDS_P1;SDS_P2;PMS_P1;PMS_P2;Temp;Humidity;BMP_temperature;BMP_pressure;BME280_temperature;BME280_humidity;BME280_pressure;Samples;Min_cycle;Max_cycle;Signal;HPM_P1;HPM_P2
2024/02/29 00:00:00;;;;;;;18.30;12.00;;;;;;;6.55;96.37;100460.75;217615;1260;141389;-75
2024/02/29 00:05:11;;;;;;;21.00;13.70;;;;;;;6.54;96.44;100458.49;218745;1258;140653;-75
2024/02/29 00:10:15;;;;;;;20.50;12.50;;;;;;;6.52;96.53;100459.73;218563;1258;140299;-75
2024/02/29 00:15:19;;;;;;;30.20;12.70;;;;;;;6.51;96.39;100456.75;217629;1258;140515;-76
2024/02/29 00:20:29;;;;;;;23.40;14.40;;;;;;;6.47;96.35;100456.27;217419;1257;141467;-73
2024/02/29 00:25:33;;;;;;;20.00;12.10;;;;;;;6.44;96.24;100453.63;217712;1260;140455;-74
2024/02/29 00:30:37;;;;;;;22.10;14.40;;;;;;;6.46;96.66;100449.86;217477;1260;140013;-73
2024/02/29 00:35:41;;;;;;;22.10;13.80;;;;;;;6.46;96.71;100447.45;217522;1257;139955;-74
2024/02/29 00:40:52;;;;;;;16.20;11.80;;;;;;;6.47;96.34;100455.98;217751;1260;140833;-74
2024/02/29 00:45:58;;;;;;;29.30;14.00;;;;;;;6.47;96.53;100458.76;217366;1257;140354;-74
2024/02/29 00:51:03;;;;;;;22.30;12.10;;;;;;;6.48;96.77;100456.04;217345;1257;140130;-73
2024/02/29 00:56:08;;;;;;;20.40;12.90;;;;;;;6.46;96.66;100453.94;217793;1258;140397;-74
2024/02/29 01:01:16;;;;;;;18.70;12.00;;;;;;;6.44;96.80;100453.11;217615;1260;140165;-74
2024/02/29 01:06:21;;;;;;;17.20;11.40;;;;;;;6.45;96.55;100450.21;217509;1258;139971;-74
2024/02/29 01:11:25;;;;;;;20.60;11.90;;;;;;;6.45;96.52;100445.95;217520;1260;140495;-74
2024/02/29 01:16:30;;;;;;;24.00;13.70;;;;;;;6.45;96.91;100443.48;217459;1260;140406;-74
2024/02/29 01:21:35;;;;;;;19.90;11.90;;;;;;;6.42;96.45;100443.36;218564;1257;141103;-74
2024/02/29 01:26:40;;;;;;;24.90;13.20;;;;;;;6.34;96.27;100442.36;217590;1256;140334;-75
2024/02/29 01:31:45;;;;;;;21.40;13.40;;;;;;;6.30;96.73;100445.67;217602;1257;140435;-73
2024/02/29 01:36:50;;;;;;;21.00;13.20;;;;;;;6.30;96.78;100436.38;217690;1256;140384;-74
2024/02/29 01:41:56;;;;;;;22.40;14.50;;;;;;;6.28;96.38;100433.55;217749;1255;140756;-73
2024/02/29 01:47:01;;;;;;;17.00;12.80;;;;;;;6.27;96.89;100433.66;218981;1257;142166;-75
2024/02/29 01:52:07;;;;;;;19.80;11.50;;;;;;;6.27;96.56;100436.52;220232;1257;140606;-75
2024/02/29 01:57:13;;;;;;;22.10;13.20;;;;;;;6.26;96.75;100429.77;218651;1255;140470;-74
2024/02/29 02:02:17;;;;;;;15.40;10.90;;;;;;;6.28;96.30;100434.31;217546;1260;140694;-74
2024/02/29 02:07:22;;;;;;;17.10;11.30;;;;;;;6.28;96.74;100430.73;217786;1260;140522;-74
2024/02/29 02:12:26;;;;;;;15.00;11.00;;;;;;;6.28;96.84;100424.26;217505;1255;140893;-74
2024/02/29 02:17:32;;;;;;;16.30;10.90;;;;;;;6.28;96.29;100424.63;217569;1256;140705;-74
2024/02/29 02:22:37;;;;;;;21.00;12.60;;;;;;;6.28;96.86;100421.81;218253;1256;141349;-74
2024/02/29 02:27:41;;;;;;;16.90;13.10;;;;;;;6.28;96.60;100418.96;217874;1256;140670;-73
2024/02/29 02:32:46;;;;;;;19.20;13.50;;;;;;;6.29;96.62;100413.55;217628;1256;140752;-74
2024/02/29 02:37:50;;;;;;;22.50;13.40;;;;;;;6.30;96.72;100417.88;217611;1257;141170;-74
2024/02/29 02:42:55;;;;;;;20.00;12.10;;;;;;;6.29;96.98;100417.75;217972;1256;140715;-74
2024/02/29 02:47:59;;;;;;;19.40;12.70;;;;;;;6.28;96.86;100416.40;217535;1256;150878;-75
2024/02/29 02:53:07;;;;;;;19.40;13.60;;;;;;;6.26;96.89;100410.17;217539;1256;141142;-74
2024/02/29 02:58:11;;;;;;;21.00;11.80;;;;;;;6.26;97.00;100413.56;217705;1256;140107;-74
2024/02/29 03:03:20;;;;;;;13.70;9.40;;;;;;;6.23;96.74;100410.80;217695;1256;140881;-74
2024/02/29 03:08:25;;;;;;;14.60;10.30;;;;;;;6.16;96.47;100409.67;217760;1260;140356;-75
2024/02/29 03:13:45;;;;;;;15.20;10.10;;;;;;;6.10;96.31;100415.37;218583;1255;141824;-74
2024/02/29 03:18:59;;;;;;;20.80;11.60;;;;;;;6.06;96.68;100414.97;217340;1260;141522;-74
2024/02/29 03:24:04;;;;;;;20.10;11.90;;;;;;;6.02;96.66;100409.96;217352;1257;140903;-73
2024/02/29 03:29:11;;;;;;;23.40;12.20;;;;;;;6.01;96.96;100406.61;217460;1257;142193;-73
2024/02/29 03:34:16;;;;;;;20.00;12.80;;;;;;;6.00;96.99;100406.40;218725;1257;140668;-74
2024/02/29 03:39:20;;;;;;;32.70;12.90;;;;;;;6.00;96.99;100406.23;219650;1257;141190;-74
2024/02/29 03:44:24;;;;;;;16.90;10.30;;;;;;;6.00;97.15;100405.88;220088;1257;141287;-75
2024/02/29 03:49:28;;;;;;;21.90;13.60;;;;;;;6.02;97.08;100406.95;220322;1257;140683;-76
2024/02/29 03:54:33;;;;;;;30.60;13.50;;;;;;;6.07;97.20;100403.61;220185;1257;141058;-74
2024/02/29 03:59:38;;;;;;;25.00;14.20;;;;;;;6.08;97.06;100398.14;217483;1257;139806;-74
2024/02/29 04:04:41;;;;;;;20.10;11.30;;;;;;;6.11;96.95;100393.80;218646;1257;140489;-74
2024/02/29 04:09:46;;;;;;;24.40;13.40;;;;;;;6.09;96.90;100390.69;218324;1257;140233;-74
2024/02/29 04:14:50;;;;;;;36.50;14.10;;;;;;;6.06;97.26;100389.93;217297;1257;140241;-73
2024/02/29 04:19:55;;;;;;;25.20;15.10;;;;;;;6.05;97.10;100391.30;217408;1259;141346;-73
2024/02/29 04:25:00;;;;;;;32.50;15.20;;;;;;;6.00;97.07;100384.20;217443;1258;140967;-74
2024/02/29 04:30:05;;;;;;;32.50;13.90;;;;;;;5.97;97.35;100378.55;217544;1257;140549;-73
2024/02/29 04:35:10;;;;;;;38.20;16.20;;;;;;;5.93;97.42;100380.46;217580;1255;140661;-74
2024/02/29 04:40:14;;;;;;;30.30;14.60;;;;;;;5.89;97.24;100383.88;218129;1256;140643;-74
2024/02/29 04:45:19;;;;;;;23.20;16.60;;;;;;;5.86;97.35;100385.65;217809;1256;140923;-75
2024/02/29 04:50:22;;;;;;;32.00;14.80;;;;;;;5.84;97.28;100382.61;217705;1260;140192;-73
2024/02/29 04:55:27;;;;;;;70.80;18.40;;;;;;;5.80;97.09;100382.34;217706;1255;140088;-73
2024/02/29 05:00:31;;;;;;;41.40;18.00;;;;;;;5.79;97.56;100378.52;217617;1255;140661;-76
2024/02/29 05:05:35;;;;;;;33.10;15.50;;;;;;;5.79;97.73;100379.46;217820;1259;140079;-73
2024/02/29 05:10:39;;;;;;;50.10;17.60;;;;;;;5.79;97.75;100377.91;217467;1256;142024;-73
2024/02/29 05:15:44;;;;;;;60.30;23.30;;;;;;;5.79;98.12;100378.15;217514;1256;140006;-73
2024/02/29 05:20:47;;;;;;;53.50;18.60;;;;;;;5.80;97.96;100387.00;218827;1256;141193;-73
2024/02/29 05:25:52;;;;;;;40.00;17.00;;;;;;;5.80;97.91;100386.70;218391;1256;140461;-74
2024/02/29 05:30:57;;;;;;;52.70;17.80;;;;;;;5.80;97.72;100389.48;217471;1258;140237;-75
2024/02/29 05:36:01;;;;;;;28.20;15.20;;;;;;;5.79;97.74;100390.15;218195;1256;141282;-75
2024/02/29 05:41:06;;;;;;;29.40;15.50;;;;;;;5.78;98.07;100388.84;219219;1255;140409;-78
2024/02/29 05:46:10;;;;;;;110.80;21.50;;;;;;;5.81;98.11;100386.62;217490;1255;142099;-79
2024/02/29 05:51:15;;;;;;;45.90;17.50;;;;;;;5.82;98.34;100386.42;217257;1256;140758;-78
2024/02/29 05:56:20;;;;;;;47.80;19.10;;;;;;;5.84;98.20;100385.95;217698;1256;140350;-77
2024/02/29 06:01:24;;;;;;;96.50;23.00;;;;;;;5.86;98.18;100389.85;217460;1256;139884;-76
2024/02/29 06:06:29;;;;;;;48.20;16.40;;;;;;;5.88;98.31;100385.61;217571;1256;141802;-77
2024/02/29 06:11:34;;;;;;;39.80;19.20;;;;;;;5.90;98.10;100394.69;217766;1256;140548;-76
2024/02/29 06:16:38;;;;;;;47.60;20.90;;;;;;;5.95;98.62;100398.56;217325;1255;140590;-75
2024/02/29 06:21:44;;;;;;;104.00;20.40;;;;;;;5.98;98.62;100393.43;217648;1256;141207;-75
2024/02/29 06:26:48;;;;;;;43.40;18.50;;;;;;;5.99;98.38;100399.06;217627;1256;140446;-75
2024/02/29 06:31:53;;;;;;;58.10;22.50;;;;;;;6.00;98.72;100399.15;217673;1259;140628;-74
2024/02/29 06:36:59;;;;;;;52.90;19.60;;;;;;;6.00;98.70;100402.61;217482;1255;140912;-74
2024/02/29 06:42:04;;;;;;;68.00;23.40;;;;;;;6.01;98.82;100409.26;217406;1259;139492;-74
2024/02/29 06:47:08;;;;;;;45.20;18.90;;;;;;;6.02;98.47;100408.73;217712;1256;140020;-73
2024/02/29 06:52:12;;;;;;;55.20;17.70;;;;;;;6.05;99.03;100410.16;217483;1258;140659;-76
2024/02/29 06:57:16;;;;;;;67.00;24.60;;;;;;;6.08;98.88;100408.60;217513;1258;139834;-75
2024/02/29 07:02:19;;;;;;;77.60;23.40;;;;;;;6.10;99.13;100407.02;217755;1256;140776;-75
2024/02/29 07:07:25;;;;;;;103.30;24.20;;;;;;;6.12;98.81;100407.39;217563;1255;140046;-74
2024/02/29 07:12:29;;;;;;;54.90;18.90;;;;;;;6.13;99.30;100406.87;217886;1256;141356;-74
2024/02/29 07:17:34;;;;;;;86.50;22.00;;;;;;;6.17;99.30;100406.79;217730;1256;140579;-74
2024/02/29 07:22:40;;;;;;;30.50;17.70;;;;;;;6.20;99.49;100406.70;217562;1256;140612;-75
2024/02/29 07:27:45;;;;;;;61.50;22.30;;;;;;;6.25;98.97;100405.77;220279;1255;141178;-76
2024/02/29 07:32:50;;;;;;;44.30;19.00;;;;;;;6.29;99.13;100408.75;219862;1256;551304;-76
2024/02/29 07:37:54;;;;;;;30.80;15.50;;;;;;;6.35;99.12;100405.47;220124;1255;142694;-76
2024/02/29 07:43:00;;;;;;;33.80;20.90;;;;;;;6.42;99.21;100403.95;217484;1256;139696;-75
2024/02/29 07:48:05;;;;;;;49.20;19.30;;;;;;;6.47;98.78;100403.79;218106;1256;140809;-76
2024/02/29 07:53:10;;;;;;;38.50;18.70;;;;;;;6.50;99.43;100396.32;219020;1256;141938;-75
2024/02/29 07:58:15;;;;;;;32.90;17.70;;;;;;;6.53;99.31;100398.75;217916;1256;140056;-76
2024/02/29 08:03:19;;;;;;;31.00;16.20;;;;;;;6.56;99.26;100404.32;217476;1256;140730;-75
2024/02/29 08:08:24;;;;;;;31.20;16.80;;;;;;;6.58;98.93;100397.13;217602;1256;140986;-76
2024/02/29 08:13:28;;;;;;;30.80;16.70;;;;;;;6.61;99.45;100398.71;218301;1256;140116;-76
2024/02/29 08:18:33;;;;;;;34.20;18.70;;;;;;;6.65;99.59;100400.73;217439;1256;141304;-76
2024/02/29 08:23:38;;;;;;;27.90;15.70;;;;;;;6.66;99.22;100397.03;218054;1257;142700;-75
2024/02/29 08:28:43;;;;;;;39.90;18.00;;;;;;;6.66;99.59;100395.15;217694;1255;140297;-75
2024/02/29 08:33:48;;;;;;;31.80;15.00;;;;;;;6.67;99.49;100395.69;217637;1256;140964;-76
2024/02/29 08:38:52;;;;;;;38.50;19.00;;;;;;;6.64;99.10;100390.17;217537;1260;141276;-77
2024/02/29 08:43:57;;;;;;;31.10;16.00;;;;;;;6.61;99.55;100391.48;217671;1258;140859;-77
2024/02/29 08:49:01;;;;;;;25.10;15.50;;;;;;;6.65;99.01;100388.34;218251;1255;140625;-77
2024/02/29 08:54:06;;;;;;;34.40;16.60;;;;;;;6.74;99.41;100386.10;217714;1256;142494;-76
2024/02/29 08:59:13;;;;;;;30.10;16.30;;;;;;;6.84;99.45;100383.48;217606;1256;141731;-76
2024/02/29 09:04:21;;;;;;;29.80;14.80;;;;;;;6.92;99.34;100383.13;217636;1256;140885;-75
2024/02/29 09:09:27;;;;;;;27.60;16.60;;;;;;;7.05;99.59;100381.44;218673;1256;142449;-75
2024/02/29 09:14:32;;;;;;;24.60;13.70;;;;;;;7.25;99.92;100378.98;217669;1256;140800;-74
2024/02/29 09:19:36;;;;;;;24.40;13.50;;;;;;;7.36;99.65;100373.74;217651;1260;141356;-74
2024/02/29 09:24:40;;;;;;;29.80;15.00;;;;;;;7.41;98.96;100372.50;217540;1256;140304;-75
2024/02/29 09:29:44;;;;;;;25.90;13.90;;;;;;;7.46;99.32;100376.02;217686;1256;139732;-75
2024/02/29 09:34:49;;;;;;;18.90;10.90;;;;;;;7.55;99.26;100370.80;217316;1260;140754;-76
2024/02/29 09:39:54;;;;;;;27.40;14.10;;;;;;;7.67;99.12;100365.40;217488;1256;139709;-76
2024/02/29 09:44:59;;;;;;;24.20;16.70;;;;;;;7.79;99.07;100365.19;217824;1256;140078;-75
2024/02/29 09:50:07;;;;;;;21.90;12.70;;;;;;;7.87;98.69;100362.88;217626;1258;140898;-75
2024/02/29 09:55:13;;;;;;;28.00;15.50;;;;;;;7.97;98.41;100363.45;217745;1256;140460;-75
2024/02/29 10:00:17;;;;;;;27.40;15.10;;;;;;;8.03;98.15;100361.41;217700;1256;140786;-76
2024/02/29 10:05:21;;;;;;;27.90;17.10;;;;;;;8.07;97.98;100355.17;217584;1256;140678;-77
2024/02/29 10:10:26;;;;;;;24.00;17.20;;;;;;;8.14;98.21;100356.17;217628;1258;140486;-77
2024/02/29 10:15:31;;;;;;;33.50;18.20;;;;;;;8.13;97.56;100354.05;217468;1255;140480;-78
2024/02/29 10:20:39;;;;;;;32.20;18.70;;;;;;;8.23;97.91;100347.02;217437;1256;140359;-77
2024/02/29 10:25:43;;;;;;;;;;;;;;;8.34;97.87;100338.33;217486;1256;140789;-76
2024/02/29 10:30:54;;;;;;;34.30;20.40;;;;;;;8.41;97.65;100331.47;218003;1256;126105;-75
2024/02/29 10:36:10;;;;;;;28.10;19.10;;;;;;;8.55;97.91;100327.85;217550;1256;140232;-77
2024/02/29 10:41:16;;;;;;;35.40;18.80;;;;;;;8.71;97.71;100312.61;217734;1256;140861;-76
2024/02/29 10:46:24;;;;;;;25.10;16.30;;;;;;;8.86;97.51;100298.45;218979;1255;141763;-78
2024/02/29 10:51:53;;;;;;;23.90;16.60;;;;;;;8.98;96.97;100292.92;217541;1260;140101;-76
2024/02/29 10:56:59;;;;;;;26.40;16.40;;;;;;;9.12;96.65;100286.17;217519;1260;142147;-77
2024/02/29 11:02:03;;;;;;;25.80;14.90;;;;;;;9.21;96.27;100280.50;218520;1256;140606;-77
2024/02/29 11:07:08;;;;;;;29.40;15.50;;;;;;;9.24;95.72;100276.93;217536;1256;141283;-76
2024/02/29 11:12:13;;;;;;;23.60;15.40;;;;;;;9.30;95.38;100268.55;219713;1255;141090;-77
2024/02/29 11:17:30;;;;;;;21.70;15.10;;;;;;;9.34;94.84;100264.48;220252;1256;141560;-77
2024/02/29 11:22:49;;;;;;;21.80;14.50;;;;;;;9.41;94.70;100256.64;220452;1255;141351;-76
2024/02/29 11:27:53;;;;;;;20.70;14.60;;;;;;;9.51;94.54;100247.75;218708;1256;141298;-74
2024/02/29 11:33:08;;;;;;;19.50;12.60;;;;;;;9.60;94.36;100244.16;217501;1256;140845;-75
2024/02/29 11:38:13;;;;;;;21.40;14.70;;;;;;;9.70;94.33;100239.36;218147;1259;140553;-74
2024/02/29 11:43:31;;;;;;;28.60;15.50;;;;;;;9.72;93.40;100234.91;217630;1256;140567;-74
2024/02/29 11:48:35;;;;;;;19.20;14.40;;;;;;;9.68;93.27;100228.39;217468;1256;140128;-74
2024/02/29 11:53:39;;;;;;;22.00;14.20;;;;;;;9.64;92.49;100222.10;217512;1256;140915;-75
2024/02/29 11:58:45;;;;;;;17.80;11.50;;;;;;;9.59;92.60;100208.64;217500;1255;140538;-76
2024/02/29 12:03:50;;;;;;;19.70;14.20;;;;;;;9.66;92.94;100209.44;217457;1256;140677;-77
2024/02/29 12:08:55;;;;;;;20.40;14.20;;;;;;;9.83;92.98;100202.05;217715;1254;140949;-76
2024/02/29 12:14:00;;;;;;;20.70;14.90;;;;;;;9.94;92.80;100198.55;217501;1255;140828;-76
2024/02/29 12:19:09;;;;;;;26.10;15.70;;;;;;;10.00;92.60;100193.38;217472;1260;141744;-74
2024/02/29 12:24:13;;;;;;;19.50;13.40;;;;;;;9.92;92.14;100186.36;217554;1256;140612;-74
2024/02/29 12:29:16;;;;;;;25.30;15.70;;;;;;;9.92;91.89;100173.83;217323;1256;152020;-75
2024/02/29 12:34:20;;;;;;;21.50;12.20;;;;;;;9.96;92.06;100161.49;217675;1256;208943;-75
2024/02/29 12:39:25;;;;;;;27.50;16.50;;;;;;;9.99;91.59;100150.95;217417;1257;140745;-75
2024/02/29 12:44:31;;;;;;;25.80;16.90;;;;;;;9.91;91.16;100140.56;218082;1256;141068;-78
2024/02/29 12:49:36;;;;;;;22.70;16.40;;;;;;;9.93;91.28;100134.68;217587;1256;140574;-75
2024/02/29 12:54:41;;;;;;;24.90;16.70;;;;;;;10.04;91.84;100130.39;217623;1254;140703;-75
2024/02/29 12:59:45;;;;;;;20.40;14.30;;;;;;;10.23;91.78;100125.41;217394;1256;139956;-77
2024/02/29 13:04:49;;;;;;;26.20;15.70;;;;;;;10.24;90.70;100121.73;217709;1258;141706;-74
2024/02/29 13:09:53;;;;;;;23.10;13.70;;;;;;;10.15;90.76;100114.08;217922;1255;141617;-73
2024/02/29 13:14:58;;;;;;;21.50;13.70;;;;;;;10.41;91.45;100099.44;217695;1259;140847;-79
2024/02/29 13:20:02;;;;;;;25.50;16.50;;;;;;;10.40;90.53;100096.54;218246;1258;142000;-73
2024/02/29 13:25:06;;;;;;;28.40;16.40;;;;;;;10.23;89.94;100102.69;218631;1259;141217;-77
2024/02/29 13:30:10;;;;;;;21.70;15.00;;;;;;;10.12;90.48;100101.77;218398;1259;141022;-78
2024/02/29 13:35:14;;;;;;;19.90;13.50;;;;;;;10.09;90.30;100104.83;217680;1256;141567;-76
2024/02/29 13:40:19;;;;;;;25.70;17.10;;;;;;;9.91;89.66;100098.24;217816;1255;140529;-75
2024/02/29 13:45:23;;;;;;;23.20;15.40;;;;;;;9.77;90.09;100096.99;218021;1256;140075;-75
2024/02/29 13:50:27;;;;;;;20.90;14.90;;;;;;;9.70;90.16;100095.65;217765;1256;141441;-75
2024/02/29 13:55:31;;;;;;;22.70;14.30;;;;;;;9.56;90.31;100092.86;217814;1256;141464;-77
2024/02/29 14:00:35;;;;;;;27.60;14.90;;;;;;;9.47;90.39;100089.02;217844;1260;140129;-75
2024/02/29 14:05:39;;;;;;;24.60;15.10;;;;;;;9.31;90.34;100090.17;217623;1256;141075;-77
2024/02/29 14:10:44;;;;;;;29.30;17.80;;;;;;;9.12;90.45;100091.73;218636;1257;140553;-75
2024/02/29 14:15:48;;;;;;;25.90;17.40;;;;;;;9.02;91.02;100084.39;217960;1257;140506;-75
2024/02/29 14:20:53;;;;;;;26.80;16.00;;;;;;;9.01;91.24;100083.88;217748;1259;140086;-76
2024/02/29 14:25:57;;;;;;;28.70;17.40;;;;;;;8.94;91.33;100082.04;217847;1259;139821;-73
2024/02/29 14:31:04;;;;;;;20.50;15.40;;;;;;;8.94;91.72;100081.09;217761;1259;140464;-75
2024/02/29 14:36:12;;;;;;;27.50;15.00;;;;;;;8.97;92.19;100077.73;217923;1258;140056;-75
2024/02/29 14:41:16;;;;;;;31.30;19.40;;;;;;;8.97;92.02;100070.23;217680;1255;140060;-77
2024/02/29 14:46:21;;;;;;;28.90;17.90;;;;;;;8.94;92.26;100064.77;217946;1259;141339;-73
2024/02/29 14:51:26;;;;;;;31.30;18.30;;;;;;;8.94;92.47;100061.38;217846;1256;141356;-75
2024/02/29 14:56:31;;;;;;;30.60;17.00;;;;;;;9.02;92.62;100061.15;217798;1256;140243;-75
2024/02/29 15:01:35;;;;;;;34.60;19.00;;;;;;;9.10;92.83;100057.59;219010;1256;140361;-76
2024/02/29 15:06:40;;;;;;;25.40;13.60;;;;;;;9.18;92.91;100052.23;218253;1256;140913;-74
2024/02/29 15:11:44;;;;;;;31.00;19.10;;;;;;;9.22;92.94;100051.42;217619;1259;141478;-74
2024/02/29 15:16:48;;;;;;;41.80;19.70;;;;;;;9.27;92.94;100045.98;217480;1259;141374;-75
2024/02/29 15:21:52;;;;;;;36.50;18.00;;;;;;;9.29;93.02;100040.19;217908;1258;141440;-74
2024/02/29 15:26:59;;;;;;;26.20;16.60;;;;;;;9.30;93.07;100032.04;217755;1260;142836;-75
2024/02/29 15:32:05;;;;;;;31.00;16.90;;;;;;;9.30;92.87;100031.09;217875;1260;140393;-75
2024/02/29 15:37:09;;;;;;;32.60;18.10;;;;;;;9.29;93.11;100028.07;217784;1258;140561;-75
2024/02/29 15:42:14;;;;;;;27.90;16.30;;;;;;;9.27;92.98;100020.55;217744;1256;140647;-74
2024/02/29 15:47:18;;;;;;;41.70;19.50;;;;;;;9.24;93.01;100022.05;218458;1257;139961;-74
2024/02/29 15:52:22;;;;;;;47.60;26.00;;;;;;;9.23;93.14;100018.42;217980;1259;140083;-77
2024/02/29 15:57:29;;;;;;;41.90;22.60;;;;;;;9.21;92.99;100017.50;217691;1260;140770;-75
2024/02/29 16:02:33;;;;;;;30.30;18.60;;;;;;;9.23;93.45;100012.23;217623;1259;141175;-76
2024/02/29 16:07:37;;;;;;;35.40;20.80;;;;;;;9.24;93.58;100010.30;217815;1256;141572;-79
2024/02/29 16:12:42;;;;;;;32.10;20.50;;;;;;;9.24;93.43;100016.83;217709;1256;139641;-77
2024/02/29 16:17:46;;;;;;;35.00;18.30;;;;;;;9.23;93.48;100015.32;217815;1259;140871;-77
2024/02/29 16:22:49;;;;;;;40.90;21.80;;;;;;;9.21;93.51;100007.64;217627;1261;141175;-77
2024/02/29 16:27:53;;;;;;;33.10;20.00;;;;;;;9.20;93.49;100005.98;217756;1261;140273;-76
2024/02/29 16:32:58;;;;;;;39.40;20.50;;;;;;;9.20;93.63;100002.61;217624;1258;140624;-75
2024/02/29 16:38:03;;;;;;;36.90;20.60;;;;;;;9.21;93.57;100003.22;218283;1260;139916;-76
2024/02/29 16:43:07;;;;;;;36.60;21.70;;;;;;;9.17;93.50;100003.95;217716;1260;141210;-77
2024/02/29 16:48:11;;;;;;;31.00;18.50;;;;;;;9.10;93.66;100004.57;217774;1258;141249;-78
2024/02/29 16:53:15;;;;;;;37.60;22.30;;;;;;;9.05;93.63;100002.27;217518;1261;142327;-76
2024/02/29 16:58:19;;;;;;;40.10;22.80;;;;;;;9.01;93.84;99998.45;217689;1259;141573;-74
2024/02/29 17:03:24;;;;;;;41.20;20.10;;;;;;;8.96;93.96;99996.09;217965;1257;140005;-75
2024/02/29 17:08:28;;;;;;;46.10;22.80;;;;;;;8.92;94.12;99994.77;219049;1260;141121;-75
2024/02/29 17:13:31;;;;;;;40.60;22.40;;;;;;;8.90;94.24;99980.39;218665;1260;141229;-75
2024/02/29 17:18:35;;;;;;;46.00;25.20;;;;;;;8.90;94.43;99968.85;218478;1257;140932;-74
2024/02/29 17:23:40;;;;;;;48.60;25.10;;;;;;;8.88;94.15;99967.96;217824;1260;141966;-74
2024/02/29 17:28:47;;;;;;;38.70;20.60;;;;;;;8.86;94.26;99963.59;217587;1258;139826;-75
2024/02/29 17:33:52;;;;;;;44.40;26.30;;;;;;;8.81;94.12;99960.85;217618;1260;140932;-75
2024/02/29 17:38:56;;;;;;;49.40;25.00;;;;;;;8.74;93.88;99953.50;217788;1257;140105;-75
2024/02/29 17:44:02;;;;;;;49.50;26.60;;;;;;;8.62;93.66;99946.80;217662;1261;140826;-74
2024/02/29 17:49:07;;;;;;;47.30;25.90;;;;;;;8.51;93.70;99944.49;217594;1260;141354;-73
2024/02/29 17:54:11;;;;;;;40.90;23.80;;;;;;;8.40;93.90;99942.55;217670;1260;139986;-75
2024/02/29 17:59:15;;;;;;;35.40;23.60;;;;;;;8.33;93.93;99937.40;218084;1260;140629;-75
2024/02/29 18:04:19;;;;;;;51.30;28.20;;;;;;;8.24;94.12;99930.30;217630;1255;140755;-75
2024/02/29 18:09:23;;;;;;;37.10;19.40;;;;;;;8.14;93.76;99928.73;217820;1260;140013;-74
2024/02/29 18:14:28;;;;;;;47.70;27.00;;;;;;;8.06;94.31;99922.52;217790;1257;140580;-74
2024/02/29 18:19:33;;;;;;;44.70;25.30;;;;;;;8.00;94.15;99915.20;217579;1258;139808;-75
2024/02/29 18:24:41;;;;;;;61.30;31.30;;;;;;;7.97;94.52;99908.40;217391;1262;141261;-75
2024/02/29 18:29:46;;;;;;;45.80;25.80;;;;;;;7.96;94.58;99901.84;217437;1258;140210;-75
2024/02/29 18:34:50;;;;;;;43.90;23.00;;;;;;;7.90;94.28;99901.80;217825;1258;140706;-76
2024/02/29 18:39:55;;;;;;;47.20;25.90;;;;;;;7.83;94.38;99901.27;218209;1257;140745;-76
2024/02/29 18:45:00;;;;;;;40.80;23.00;;;;;;;7.75;94.69;99901.50;219310;1257;140643;-76
2024/02/29 18:50:05;;;;;;;48.30;24.40;;;;;;;7.71;94.73;99898.70;217562;1261;140529;-75
2024/02/29 18:55:10;;;;;;;39.50;23.60;;;;;;;7.70;95.17;99889.68;218620;1259;140758;-75
2024/02/29 19:00:16;;;;;;;43.80;24.40;;;;;;;7.67;95.07;99887.73;220301;1257;141296;-76
2024/02/29 19:05:20;;;;;;;39.50;20.80;;;;;;;7.66;95.26;99878.73;220113;1256;140090;-75
2024/02/29 19:10:25;;;;;;;42.80;25.50;;;;;;;7.67;95.38;99868.89;219597;1257;140769;-75
2024/02/29 19:15:29;;;;;;;43.10;24.30;;;;;;;7.68;95.46;99870.89;218400;1258;139851;-76
2024/02/29 19:20:33;;;;;;;44.80;24.20;;;;;;;7.67;95.84;99868.16;217516;1257;140047;-76
2024/02/29 19:25:40;;;;;;;43.40;24.40;;;;;;;7.67;95.87;99869.26;217540;1257;140444;-74
2024/02/29 19:30:48;;;;;;;41.00;24.10;;;;;;;7.65;96.18;99870.04;217411;1260;140913;-75
2024/02/29 19:35:53;;;;;;;41.80;25.10;;;;;;;7.64;96.32;99870.42;217057;1260;443028;-75
2024/02/29 19:40:59;;;;;;;50.10;24.10;;;;;;;7.63;96.66;99861.01;217521;1256;141246;-75
2024/02/29 19:46:04;;;;;;;49.80;25.90;;;;;;;7.61;96.38;99855.92;217726;1260;140252;-75
2024/02/29 19:51:08;;;;;;;49.30;25.70;;;;;;;7.60;96.55;99850.42;217390;1257;140653;-75
2024/02/29 19:56:13;;;;;;;38.90;23.20;;;;;;;7.61;97.21;99846.09;217448;1259;139590;-76
2024/02/29 20:01:18;;;;;;;49.00;28.30;;;;;;;7.62;97.27;99853.92;217273;1258;139741;-75
2024/02/29 20:06:23;;;;;;;54.20;28.20;;;;;;;7.62;96.93;99848.82;217607;1255;140097;-75
2024/02/29 20:11:27;;;;;;;40.50;24.50;;;;;;;7.60;97.31;99849.69;218055;1257;140290;-75
2024/02/29 20:16:32;;;;;;;49.60;27.30;;;;;;;7.60;97.61;99847.71;217325;1260;140659;-75
2024/02/29 20:21:36;;;;;;;55.90;29.10;;;;;;;7.64;97.60;99845.81;217509;1258;140281;-75
2024/02/29 20:26:43;;;;;;;48.00;25.00;;;;;;;7.68;97.86;99840.31;218163;1257;139584;-77
2024/02/29 20:31:48;;;;;;;52.90;27.20;;;;;;;7.72;98.02;99833.88;217670;1257;141423;-75
2024/02/29 20:36:52;;;;;;;46.00;25.50;;;;;;;7.77;98.63;99832.25;217207;1257;141003;-76
2024/02/29 20:41:57;;;;;;;49.00;27.40;;;;;;;7.82;98.64;99828.44;217363;1257;139518;-75
2024/02/29 20:47:01;;;;;;;59.10;27.30;;;;;;;7.86;98.65;99819.96;217200;1260;139912;-75
2024/02/29 20:52:06;;;;;;;57.00;27.80;;;;;;;7.86;98.65;99816.41;217200;1257;141016;-75
2024/02/29 20:57:10;;;;;;;47.40;28.20;;;;;;;7.81;98.04;99812.72;220147;1257;140231;-76
2024/02/29 21:02:14;;;;;;;44.30;25.60;;;;;;;7.77;97.85;99812.34;220380;1256;139926;-75
2024/02/29 21:07:18;;;;;;;54.40;28.20;;;;;;;7.74;97.80;99808.11;220436;1257;139613;-75
2024/02/29 21:12:23;;;;;;;54.00;29.90;;;;;;;7.72;97.78;99801.10;220315;1257;140105;-75
2024/02/29 21:17:31;;;;;;;43.80;27.60;;;;;;;7.71;97.47;99798.17;220202;1257;140057;-75
2024/02/29 21:22:43;;;;;;;47.30;26.70;;;;;;;7.68;97.37;99796.75;217954;1257;140290;-78
2024/02/29 21:27:47;;;;;;;45.90;27.10;;;;;;;7.65;97.54;99791.35;217291;1257;141164;-75
2024/02/29 21:32:52;;;;;;;45.90;25.80;;;;;;;7.61;97.54;99787.31;217662;1260;139768;-75
2024/02/29 21:37:56;;;;;;;43.70;26.00;;;;;;;7.57;97.72;99782.28;218559;1255;140661;-75
2024/02/29 21:43:01;;;;;;;47.30;27.40;;;;;;;7.53;98.09;99778.01;217956;1256;140035;-75
2024/02/29 21:48:05;;;;;;;48.60;28.40;;;;;;;7.51;98.31;99773.37;217894;1256;139607;-76
2024/02/29 21:53:09;;;;;;;48.20;27.30;;;;;;;7.50;98.37;99768.56;218140;1258;141315;-75
2024/02/29 21:58:13;;;;;;;38.20;23.40;;;;;;;7.50;98.25;99765.42;217538;1255;139699;-74
2024/02/29 22:03:17;;;;;;;47.60;27.40;;;;;;;7.46;98.37;99757.97;217754;1256;139762;-75
2024/02/29 22:08:24;;;;;;;40.40;23.20;;;;;;;7.44;98.52;99757.00;217864;1255;141229;-75
2024/02/29 22:13:28;;;;;;;49.80;28.30;;;;;;;7.43;98.82;99755.38;217483;1260;139651;-75
2024/02/29 22:18:33;;;;;;;52.50;27.10;;;;;;;7.42;99.30;99749.95;217440;1256;139845;-75
2024/02/29 22:23:38;;;;;;;50.90;26.90;;;;;;;7.43;99.69;99743.66;217599;1258;142283;-75
2024/02/29 22:28:44;;;;;;;54.90;31.90;;;;;;;7.43;99.37;99739.46;217381;1257;139847;-74
2024/02/29 22:33:50;;;;;;;53.30;30.10;;;;;;;7.42;99.34;99732.65;217569;1260;142641;-74
2024/02/29 22:38:55;;;;;;;43.90;25.40;;;;;;;7.42;99.67;99727.55;217611;1256;140701;-74
2024/02/29 22:44:00;;;;;;;46.40;23.60;;;;;;;7.41;99.80;99724.54;219474;1255;141626;-74
2024/02/29 22:49:04;;;;;;;57.60;29.40;;;;;;;7.42;99.89;99713.80;217444;1260;140067;-75
2024/02/29 22:54:09;;;;;;;50.80;27.70;;;;;;;7.42;99.80;99705.69;219271;1255;140758;-76